N311VE KBOI-KC53
Flight info
| Callsign | N311VE |
|---|---|
| Flight time | N/A |
| Altitude | 7500 |
| Route | BOI3 BOI SAWTT/N0182F090 |
| Aircraft | K100/L-SBDGRY/S |
Departure
| Time | N/A |
|---|---|
| Airport | Boise Air Terminal/Gowen Field (KBOI) |
Arrival
| Time | 2026-04-20 16:06 |
|---|---|
| Airport | Lower Loon Creek Airport (KC53) |
| Time | Latitude | Longitude | Altitude | Speed | Heading |
|---|---|---|---|---|---|
| 2026-04-20 15:56 | 44.52671 | -115.10962 | 10059 ft | 185 kts | 37° |
| 2026-04-20 15:56 | 44.53709 | -115.09887 | 10073 ft | 187 kts | 37° |
| 2026-04-20 15:57 | 44.54771 | -115.08777 | 10067 ft | 193 kts | 37° |
| 2026-04-20 15:57 | 44.55853 | -115.07639 | 10067 ft | 193 kts | 37° |
| 2026-04-20 15:57 | 44.56918 | -115.06488 | 10061 ft | 192 kts | 38° |
| 2026-04-20 15:57 | 44.57968 | -115.05365 | 10078 ft | 189 kts | 38° |
| 2026-04-20 15:58 | 44.59044 | -115.04242 | 10072 ft | 196 kts | 39° |
| 2026-04-20 15:58 | 44.60115 | -115.03054 | 10065 ft | 197 kts | 38° |
| 2026-04-20 15:58 | 44.61206 | -115.01909 | 10051 ft | 193 kts | 37° |
| 2026-04-20 15:58 | 44.62271 | -115.00784 | 10050 ft | 191 kts | 38° |
| 2026-04-20 15:59 | 44.63313 | -114.99669 | 10062 ft | 186 kts | 38° |
| 2026-04-20 15:59 | 44.64352 | -114.98557 | 10062 ft | 188 kts | 38° |
| 2026-04-20 15:59 | 44.65382 | -114.97429 | 10061 ft | 190 kts | 38° |
| 2026-04-20 15:59 | 44.66430 | -114.96346 | 10056 ft | 185 kts | 37° |
| 2026-04-20 16:00 | 44.67451 | -114.95260 | 10061 ft | 185 kts | 38° |
| 2026-04-20 16:00 | 44.68468 | -114.94170 | 10057 ft | 182 kts | 38° |
| 2026-04-20 16:00 | 44.69487 | -114.93109 | 10054 ft | 182 kts | 37° |
| 2026-04-20 16:00 | 44.70486 | -114.92025 | 10058 ft | 182 kts | 39° |
| 2026-04-20 16:01 | 44.71496 | -114.90912 | 10069 ft | 186 kts | 38° |
| 2026-04-20 16:01 | 44.72524 | -114.89809 | 10043 ft | 184 kts | 38° |
| 2026-04-20 16:01 | 44.73540 | -114.88731 | 10051 ft | 186 kts | 38° |
| 2026-04-20 16:01 | 44.74579 | -114.87616 | 10042 ft | 189 kts | 38° |
| 2026-04-20 16:02 | 44.75373 | -114.86224 | 10056 ft | 182 kts | 72° |
| 2026-04-20 16:02 | 44.75687 | -114.84501 | 10038 ft | 181 kts | 80° |
| 2026-04-20 16:02 | 44.75989 | -114.82792 | 10043 ft | 181 kts | 68° |
| 2026-04-20 16:02 | 44.76806 | -114.81464 | 10041 ft | 181 kts | 39° |
| 2026-04-20 16:03 | 44.77808 | -114.80373 | 10047 ft | 182 kts | 38° |
| 2026-04-20 16:03 | 44.78817 | -114.79281 | 10045 ft | 184 kts | 38° |
| 2026-04-20 16:03 | 44.79832 | -114.78181 | 10045 ft | 184 kts | 38° |
| 2026-04-20 16:03 | 44.80895 | -114.77202 | 9973 ft | 183 kts | 25° |
| 2026-04-20 16:04 | 44.82108 | -114.76532 | 9235 ft | 196 kts | 20° |
| 2026-04-20 16:04 | 44.83484 | -114.75930 | 8100 ft | 207 kts | 12° |
| 2026-04-20 16:04 | 44.84878 | -114.75657 | 7309 ft | 197 kts | 358° |
| 2026-04-20 16:04 | 44.86000 | -114.76406 | 6772 ft | 177 kts | 298° |
| 2026-04-20 16:05 | 44.85984 | -114.77470 | 6337 ft | 171 kts | 234° |
| 2026-04-20 16:05 | 44.84506 | -114.78053 | 5026 ft | 185 kts | 174° |
| 2026-04-20 16:05 | 44.83512 | -114.78770 | 4714 ft | 158 kts | 237° |
| 2026-04-20 16:05 | 44.83044 | -114.79455 | 4708 ft | 140 kts | 219° |
| 2026-04-20 16:06 | 44.82530 | -114.80326 | 4911 ft | 100 kts | 227° |
| 2026-04-20 16:06 | 44.81938 | -114.80781 | 4692 ft | 101 kts | 195° |
| 2026-04-20 16:06 | 44.81297 | -114.80922 | 4278 ft | 85 kts | 179° |
| 2026-04-20 16:06 | 44.80826 | -114.80878 | 4151 ft | 45 kts | 171° |
| 2026-04-20 16:07 | 44.80702 | -114.80880 | 4152 ft | 4 kts | 324° |
| 2026-04-20 16:07 | 44.80705 | -114.80878 | 4152 ft | 0 kts | 45° |